Home > Products > Valid Products > TAF

000
FTUS46 KSTO 222300
TAFSMF
TAF
KSMF 222333Z 2300/2324 VRB05KT P6SM BKN200
     FM231600 16006KT P6SM OVC150=



000
FTUS46 KSTO 222300
TAFRBL
TAF
KRBL 222333Z 2300/2324 VRB05KT P6SM OVC150
     FM231800 15010KT P6SM VCSH OVC100
     FM232200 17007KT 6SM -RA OVC050=



000
FTUS46 KSTO 222300
TAFSAC
TAF
KSAC 222333Z 2300/2324 VRB05KT P6SM BKN200
     FM231600 20006KT P6SM OVC150=



000
FTUS46 KSTO 222300
TAFSCK
TAF
KSCK 222333Z 2300/2324 31006KT P6SM BKN250
     FM230600 26006KT P6SM BKN200
     FM231800 30008KT P6SM BKN200=



000
FTUS46 KSTO 222300
TAFMHR
TAF
KMHR 222333Z 2300/2324 VRB05KT P6SM BKN200
     FM231600 17004KT P6SM OVC150
      AMD NOT SKED=



000
FTUS46 KSTO 222300
TAFRDD
TAF
KRDD 222333Z 2300/2324 VRB05KT P6SM OVC120
     FM231200 VRB05KT P6SM VCSH OVC100
     FM231900 16008KT 6SM -RA OVC050=



000
FTUS46 KSTO 221700
TAFRBL
TAF
KRBL 221733Z 2218/2318 33005KT P6SM BKN250
     FM222100 17007KT P6SM SCT120 BKN200
     FM230800 18005KT P6SM OVC100 PROB30 2308/2312 6SM -RA OVC050
     FM231200 17007KT 6SM -RA OVC050=



000
FTUS46 KSTO 221700
TAFSAC
TAF
KSAC 221733Z 2218/2318 VRB05KT P6SM BKN250
     FM230200 23006KT P6SM BKN150 OVC200=



000
FTUS46 KSTO 221700
TAFSMF
TAF
KSMF 221733Z 2218/2318 VRB05KT P6SM BKN250
     FM230200 18006KT P6SM BKN120 OVC200=



000
FTUS46 KSTO 221700
TAFRDD
TAF
KRDD 221733Z 2218/2318 32004KT P6SM BKN200
     FM222300 18006KT P6SM BKN120 BKN200
     FM230600 18003KT P6SM OVC100 PROB30 2306/2312 6SM -RA OVC050
     FM231200 18003KT 6SM -RA OVC050=



000
FTUS46 KSTO 221700
TAFSAC
TAF
KSAC 221733Z 2218/2318 VRB05KT P6SM BKN250
     FM230200 23006KT P6SM BKN150 OVC200=



000
FTUS46 KSTO 221700
TAFSCK
TAF
KSCK 221733Z 2218/2318 28006KT P6SM FEW250
     FM222100 31007KT P6SM SCT200=



000
FTUS46 KSTO 221700
TAFRBL
TAF
KRBL 221733Z 2218/2318 33005KT P6SM BKN250
     FM222100 17007KT P6SM SCT120 BKN200
     FM230800 18005KT P6SM OVC100 PROB30 2308/2312 6SM -RA OVC050
     FM231200 17007KT 6SM -RA OVC050=



000
FTUS46 KSTO 221700
TAFSMF
TAF
KSMF 221733Z 2218/2318 VRB05KT P6SM BKN250
     FM230200 18006KT P6SM BKN120 OVC200=



000
FTUS46 KSTO 221700
TAFRDD
TAF
KRDD 221733Z 2218/2318 32004KT P6SM BKN200
     FM222300 18006KT P6SM BKN120 BKN200
     FM230600 18003KT P6SM OVC100 PROB30 2306/2312 6SM -RA OVC050
     FM231200 18003KT 6SM -RA OVC050=



000
FTUS46 KSTO 221700
TAFMHR
TAF
KMHR 221733Z 2218/2318 VRB05KT P6SM BKN250
     FM230200 21005KT P6SM BKN150 OVC200=



000
FTUS46 KSTO 221700
TAFMHR
TAF
KMHR 221733Z 2218/2318 VRB05KT P6SM BKN250
     FM230200 21005KT P6SM BKN150 OVC200=



000
FTUS46 KSTO 221700
TAFSCK
TAF
KSCK 221733Z 2218/2318 28006KT P6SM FEW250
     FM222100 31007KT P6SM SCT200=



000
FTUS46 KSTO 221100
TAFMHR
TAF
KMHR 221137Z 2212/2312 VRB05KT P6SM BKN250
     FM230200 21005KT P6SM BKN150 OVC200=



000
FTUS46 KSTO 221100
TAFRDD
TAF
KRDD 221137Z 2212/2312 32005KT P6SM BKN200
     FM222300 17007KT P6SM BKN120 BKN200
     FM230600 18003KT P6SM OVC100 PROB30 2306/2312 6SM -RA OVC050=



000
FTUS46 KSTO 221100
TAFSMF
TAF
KSMF 221137Z 2212/2312 VRB05KT P6SM BKN250
     FM230200 19006KT P6SM BKN120 OVC200=



000
FTUS46 KSTO 221100
TAFRBL
TAF
KRBL 221137Z 2212/2312 33005KT P6SM BKN250
     FM222100 16007KT P6SM SCT120 BKN200
     FM230800 18003KT P6SM OVC100 PROB30 2308/2312 6SM -RA OVC050=



000
FTUS46 KSTO 221100
TAFSAC
TAF
KSAC 221137Z 2212/2312 VRB05KT P6SM BKN250
     FM230200 23006KT P6SM BKN150 OVC200=



000
FTUS46 KSTO 221100
TAFSCK
TAF
KSCK 221137Z 2212/2312 28006KT P6SM FEW250
     FM222100 31008KT P6SM SCT250=



000
FTUS46 KSTO 221100
TAFSAC
TAF
KSAC 221128Z 2212/2312 VRB05KT P6SM BKN250=



000
FTUS46 KSTO 221100
TAFRBL
TAF
KRBL 221128Z 2212/2312 33005KT P6SM BKN250
     FM222100 16007KT P6SM BKN200
     FM230800 18003KT P6SM OVC100 PROB30 2308/2312 6SM -RA OVC050=



000
FTUS46 KSTO 221100
TAFSMF
TAF
KSMF 221128Z 2212/2312 VRB05KT P6SM BKN250=



000
FTUS46 KSTO 221100
TAFSCK
TAF
KSCK 221128Z 2212/2312 28006KT P6SM FEW250
     FM222100 31008KT P6SM SCT250=



000
FTUS46 KSTO 221100
TAFRDD
TAF
KRDD 221128Z 2212/2312 VRB05KT P6SM BKN200
     FM222300 17007KT P6SM BKN200
     FM230600 18003KT P6SM OVC100 PROB30 2306/2312 6SM -RA OVC050=



000
FTUS46 KSTO 221100
TAFMHR
TAF
KMHR 221128Z 2212/2312 VRB05KT P6SM BKN250=



000
FTUS46 KSTO 220500
TAFSAC
TAF
KSAC 220520Z 2206/2306 VRB05KT P6SM BKN250=



000
FTUS46 KSTO 220500
TAFMHR
TAF
KMHR 220520Z 2206/2306 VRB05KT P6SM BKN250=



000
FTUS46 KSTO 220500
TAFRBL
TAF
KRBL 220520Z 2206/2306 33005KT P6SM BKN250
     FM222100 16007KT P6SM BKN200=



000
FTUS46 KSTO 220500
TAFSCK
TAF
KSCK 220520Z 2206/2306 28006KT P6SM FEW250
     FM222100 31008KT P6SM SCT250=



000
FTUS46 KSTO 220500
TAFRDD
TAF
KRDD 220520Z 2206/2306 VRB05KT P6SM BKN200
     FM222300 17007KT P6SM BKN200=



000
FTUS46 KSTO 220500
TAFSMF
TAF
KSMF 220520Z 2206/2306 VRB05KT P6SM BKN250=



000
FTUS46 KSTO 220500
TAFSAC
TAF
KSAC 220520Z 2206/2306 VRB05KT P6SM BKN250=



000
FTUS46 KSTO 220500
TAFRDD
TAF
KRDD 220520Z 2206/2306 VRB05KT P6SM BKN200
     FM222300 17007KT P6SM BKN200=



000
FTUS46 KSTO 220500
TAFSCK
TAF
KSCK 220520Z 2206/2306 28006KT P6SM FEW250
     FM222100 31008KT P6SM SCT250=



000
FTUS46 KSTO 220500
TAFMHR
TAF
KMHR 220520Z 2206/2306 VRB05KT P6SM BKN250=



000
FTUS46 KSTO 220500
TAFSMF
TAF
KSMF 220520Z 2206/2306 VRB05KT P6SM BKN250=



000
FTUS46 KSTO 220500
TAFRBL
TAF
KRBL 220520Z 2206/2306 33005KT P6SM BKN250
     FM222100 16007KT P6SM BKN200=



000
FTUS46 KSTO 212300
TAFSCK
TAF
KSCK 212324Z 2200/2224 32013KT P6SM SCT250
     FM220300 30008KT P6SM SCT250=



000
FTUS46 KSTO 212300
TAFSMF
TAF
KSMF 212324Z 2200/2224 31008KT P6SM SCT250
     FM220600 VRB05KT P6SM BKN250=



000
FTUS46 KSTO 212300
TAFRBL
TAF
KRBL 212324Z 2200/2224 33006KT P6SM BKN250
     FM222100 16007KT P6SM BKN250=



000
FTUS46 KSTO 212300
TAFMHR
TAF
KMHR 212324Z 2200/2224 33009KT P6SM SCT250
     FM220600 VRB05KT P6SM BKN250=



000
FTUS46 KSTO 212300
TAFRDD
TAF
KRDD 212324Z 2200/2224 VRB05KT P6SM BKN200=



000
FTUS46 KSTO 212300
TAFSAC
TAF
KSAC 212324Z 2200/2224 32007KT P6SM SCT250
     FM220600 VRB05KT P6SM BKN250=



000
FTUS46 KSTO 212300
TAFSMF
TAF
KSMF 212324Z 2200/2224 31008KT P6SM SCT250
     FM220600 VRB05KT P6SM BKN250=



000
FTUS46 KSTO 212300
TAFSAC
TAF
KSAC 212324Z 2200/2224 32007KT P6SM SCT250
     FM220600 VRB05KT P6SM BKN250=



000
FTUS46 KSTO 212300
TAFMHR
TAF
KMHR 212324Z 2200/2224 33009KT P6SM SCT250
     FM220600 VRB05KT P6SM BKN250=



000
FTUS46 KSTO 212300
TAFSCK
TAF
KSCK 212324Z 2200/2224 32013KT P6SM SCT250
     FM220300 30008KT P6SM SCT250=



000
FTUS46 KSTO 212300
TAFRBL
TAF
KRBL 212324Z 2200/2224 33006KT P6SM BKN250
     FM222100 16007KT P6SM BKN250=



000
FTUS46 KSTO 212300
TAFRDD
TAF
KRDD 212324Z 2200/2224 VRB05KT P6SM BKN200=



000
FTUS46 KSTO 211700
TAFMHR
TAF
KMHR 211720Z 2118/2218 30006KT P6SM SCT250
     FM220600 VRB04KT P6SM BKN250=



000
FTUS46 KSTO 211700
TAFRDD
TAF
KRDD 211720Z 2118/2218 VRB05KT P6SM BKN200=



000
FTUS46 KSTO 211700
TAFRBL
TAF
KRBL 211720Z 2118/2218 33005KT P6SM BKN250=



000
FTUS46 KSTO 211700
TAFSAC
TAF
KSAC 211720Z 2118/2218 32006KT P6SM SCT250
     FM220600 VRB04KT P6SM BKN250=



000
FTUS46 KSTO 211700
TAFSCK
TAF
KSCK 211720Z 2118/2218 31013KT P6SM SCT250
     FM220300 28007KT P6SM SCT250=



000
FTUS46 KSTO 211700
TAFSMF
TAF
KSMF 211720Z 2118/2218 33008KT P6SM SCT250
     FM220600 16004KT P6SM BKN250=



000
FTUS46 KSTO 211400 AAA
TAFSMF
TAF AMD
KSMF 211415Z 2114/2212 VRB05KT P6SM FEW250
      TEMPO 2114/2116 2SM MIFG SCT001
     FM211800 33010KT P6SM SCT250
     FM220300 VRB05KT P6SM SCT250=



000
FTUS46 KSTO 211100
TAFSMF
TAF
KSMF 211121Z 2112/2212 VRB05KT P6SM FEW250
     FM211800 33010KT P6SM SCT250
     FM220300 VRB05KT P6SM SCT250=



000
FTUS46 KSTO 211100
TAFSAC
TAF
KSAC 211121Z 2112/2212 VRB05KT P6SM FEW250
     FM211800 32009KT P6SM SCT250
     FM220300 VRB05KT P6SM SCT250=



000
FTUS46 KSTO 211100
TAFSMF
TAF
KSMF 211121Z 2112/2212 VRB05KT P6SM FEW250
     FM211800 33010KT P6SM SCT250
     FM220300 VRB05KT P6SM SCT250=



000
FTUS46 KSTO 211100
TAFRBL
TAF
KRBL 211121Z 2112/2212 32005KT P6SM SCT250=



000
FTUS46 KSTO 211100
TAFMHR
TAF
KMHR 211121Z 2112/2212 VRB05KT P6SM FEW250
     FM211900 31007KT P6SM SCT250
     FM220300 VRB05KT P6SM SCT250=



000
FTUS46 KSTO 211100
TAFRDD
TAF
KRDD 211121Z 2112/2212 VRB05KT P6SM BKN250=



000
FTUS46 KSTO 211100
TAFSCK
TAF
KSCK 211121Z 2112/2212 VRB05KT P6SM SKC
     FM211900 31011KT P6SM SCT250
     FM220300 28007KT P6SM SCT250=



000
FTUS46 KSTO 211100
TAFSAC
TAF
KSAC 211121Z 2112/2212 VRB05KT P6SM FEW250
     FM211800 32009KT P6SM SCT250
     FM220300 VRB05KT P6SM SCT250=



000
FTUS46 KSTO 211100
TAFRDD
TAF
KRDD 211121Z 2112/2212 VRB05KT P6SM BKN250=



000
FTUS46 KSTO 211100
TAFRBL
TAF
KRBL 211121Z 2112/2212 32005KT P6SM SCT250=



000
FTUS46 KSTO 211100
TAFSCK
TAF
KSCK 211121Z 2112/2212 VRB05KT P6SM SKC
     FM211900 31011KT P6SM SCT250
     FM220300 28007KT P6SM SCT250=



000
FTUS46 KSTO 211100
TAFMHR
TAF
KMHR 211121Z 2112/2212 VRB05KT P6SM FEW250
     FM211900 31007KT P6SM SCT250
     FM220300 VRB05KT P6SM SCT250=



000
FTUS46 KSTO 210500
TAFSMF
TAF
KSMF 210524Z 2106/2206 VRB05KT P6SM FEW250
     FM211800 33010KT P6SM SCT250
     FM220300 VRB05KT P6SM SCT250=



000
FTUS46 KSTO 210500
TAFMHR
TAF
KMHR 210524Z 2106/2206 VRB05KT P6SM FEW250
     FM211800 31007KT P6SM SCT250
     FM220300 VRB05KT P6SM SCT250=



000
FTUS46 KSTO 210500
TAFRDD
TAF
KRDD 210524Z 2106/2206 VRB05KT P6SM SCT100
     FM211600 VRB05KT P6SM BKN250=



000
FTUS46 KSTO 210500
TAFRBL
TAF
KRBL 210524Z 2106/2206 VRB05KT P6SM SCT100
     FM211600 VRB05KT P6SM BKN250=



000
FTUS46 KSTO 210500
TAFSAC
TAF
KSAC 210524Z 2106/2206 VRB05KT P6SM FEW250
     FM211800 32008KT P6SM SCT250
     FM220300 VRB05KT P6SM SCT250=



000
FTUS46 KSTO 210500
TAFSCK
TAF
KSCK 210524Z 2106/2206 27006KT P6SM SKC
     FM211900 31011KT P6SM SCT250
     FM220300 28007KT P6SM SCT250=



000
FTUS46 KSTO 210200 AAA
TAFRDD
TAF AMD
KRDD 210249Z 2103/2124 VRB05KT P6SM VCSH SCT060 OVC100
     FM210600 VRB05KT P6SM FEW100 SCT250=



000
FTUS46 KSTO 210200 AAA
TAFRDD
TAF AMD
KRDD 210249Z 2103/2124 VRB05KT P6SM VCSH SCT060 OVC100
     FM210600 VRB05KT P6SM FEW100 SCT250=



000
FTUS46 KSTO 210200 AAA
TAFRBL
TAF AMD
KRBL 210245Z 2103/2124 16008KT P6SM BKN100
     FM210700 VRB05KT P6SM FEW100 SCT250=



000
FTUS46 KSTO 210200 AAA
TAFRBL
TAF AMD
KRBL 210245Z 2103/2124 16008KT P6SM BKN100
     FM210700 VRB05KT P6SM FEW100 SCT250=



000
FTUS46 KSTO 202300
TAFMHR
TAF
KMHR 202331Z 2100/2124 24011KT P6SM VCSH BKN045
      TEMPO 2100/2101 6SM -SHRA BKN025
     FM210300 VRB05KT P6SM SCT250=



000
FTUS46 KSTO 202300
TAFSMF
TAF
KSMF 202331Z 2100/2124 22012KT P6SM VCSH SCT040 BKN060
     FM210300 VRB05KT P6SM SCT250=



000
FTUS46 KSTO 202300
TAFSAC
TAF
KSAC 202331Z 2100/2124 22007KT P6SM VCSH OVC050
      TEMPO 2100/2101 6SM -SHRA BKN025
     FM210300 VRB05KT P6SM SCT250=



000
FTUS46 KSTO 202300
TAFRBL
TAF
KRBL 202331Z 2100/2124 15018G22KT P6SM VCSH SCT050
      TEMPO 2100/2103 6SM -TSRA OVC025CB
     FM210400 VRB05KT P6SM FEW100 SCT250=



000
FTUS46 KSTO 202300
TAFRDD
TAF
KRDD 202331Z 2100/2124 18006KT P6SM VCSH FEW050 SCT200
      TEMPO 2100/2103 6SM -TSRA OVC025CB
     FM210400 VRB05KT P6SM FEW060 SCT250=



000
FTUS46 KSTO 202300
TAFSCK
TAF
KSCK 202331Z 2100/2124 28015KT P6SM VCSH SCT030 BKN045
      TEMPO 2100/2101 6SM -SHRA BKN025
     FM210500 31007KT P6SM SCT250=



000
FTUS46 KSTO 202200 AAB
TAFMHR
TAF AMD
KMHR 202259Z 2023/2118 24011KT P6SM VCSH SCT035 BKN045
      TEMPO 2023/2101 6SM -SHRA BKN030
     FM210300 VRB05KT P6SM SCT250=



000
FTUS46 KSTO 202200 AAB
TAFMHR
TAF AMD
KMHR 202259Z 2023/2118 24011KT P6SM VCSH SCT035 BKN045
      TEMPO 2023/2101 6SM -SHRA BKN030
     FM210300 VRB05KT P6SM SCT250=



000
FTUS46 KSTO 202200 AAB
TAFSCK
TAF AMD
KSCK 202251Z 2023/2118 31013KT P6SM VCSH OVC045
     FM210500 31007KT P6SM SCT250=



000
FTUS46 KSTO 202200 AAB
TAFSAC
TAF AMD
KSAC 202250Z 2023/2118 22011KT P6SM VCSH SCT025 OVC050
      TEMPO 2023/2101 6SM -SHRA BKN025
     FM210300 VRB05KT P6SM SCT250=



000
FTUS46 KSTO 201900 CCA
TAFRBL
TAF COR
KRBL 201937Z 2018/2118 17007KT P6SM -SHRA SCT012 OVC040
      TEMPO 2018/2021 5SM -SHRA BKN012 OVC025
     FM202100 16009KT P6SM VCSH SCT025 BKN060
      TEMPO 2022/2102 5SM -TSRA OVC025CB
     FM210400 VRB05KT P6SM FEW100 SCT250=



000
FTUS46 KSTO 201900 CCA
TAFRDD
TAF COR
KRDD 201937Z 2018/2118 18007KT P6SM -SHRA SCT015 OVC035
      TEMPO 2018/2021 5SM -SHRA BKN015 OVC025
     FM202100 18009KT P6SM VCSH SCT025 BKN060
      TEMPO 2022/2102 5SM -TSRA OVC025CB
     FM210400 VRB05KT P6SM FEW100 SCT250=



000
FTUS46 KSTO 201800 AAA
TAFSCK
TAF AMD
KSCK 201818Z 2018/2118 30011KT P6SM SCT025 OVC050
      TEMPO 2019/2023 BKN025
     FM210500 31007KT P6SM SCT250=



000
FTUS46 KSTO 201800 AAA
TAFMHR
TAF AMD
KMHR 201817Z 2018/2118 20009KT P6SM SCT025 OVC050
      TEMPO 2019/2023 BKN025
     FM210300 VRB05KT P6SM SCT250=



000
FTUS46 KSTO 201800 AAA
TAFSMF
TAF AMD
KSMF 201816Z 2018/2118 19013KT P6SM SCT025 OVC050
      TEMPO 2019/2023 BKN025
     FM210300 VRB05KT P6SM SCT250=



000
FTUS46 KSTO 201800 AAA
TAFSAC
TAF AMD
KSAC 201816Z 2018/2118 20010KT P6SM SCT025 OVC050
      TEMPO 2019/2023 BKN025
     FM210300 VRB05KT P6SM SCT250=



000
FTUS46 KSTO 201700
TAFSAC
TAF
KSAC 201723Z 2018/2118 20010KT P6SM BKN060
     FM210300 VRB05KT P6SM SCT250=



000
FTUS46 KSTO 201700
TAFSMF
TAF
KSMF 201723Z 2018/2118 19013KT P6SM BKN060
     FM210300 VRB05KT P6SM SCT250=



000
FTUS46 KSTO 201700
TAFRDD
TAF
KRDD 201723Z 2018/2118 18007KT P6SM -SHRA SCT015 OVC035
      TEMPO 2018/2021 -SHRA BKN015 OVC025
     FM202100 18009KT P6SM VCSH SCT025 BKN060
      TEMPO 2022/2102 5SM -TSRA OVC025CB
     FM210400 VRB05KT P6SM FEW100 SCT250=



000
FTUS46 KSTO 201700
TAFRBL
TAF
KRBL 201723Z 2018/2118 17007KT P6SM -SHRA SCT012 OVC040
      TEMPO 2018/2021 -SHRA BKN012 OVC025
     FM202100 16009KT P6SM VCSH SCT025 BKN060
      TEMPO 2022/2102 5SM -TSRA OVC025CB
     FM210400 VRB05KT P6SM FEW100 SCT250=



000
FTUS46 KSTO 201700
TAFMHR
TAF
KMHR 201723Z 2018/2118 20009KT P6SM BKN060
     FM210300 VRB05KT P6SM SCT250=



000
FTUS46 KSTO 201700
TAFSCK
TAF
KSCK 201723Z 2018/2118 30011KT P6SM BKN060
     FM210500 31007KT P6SM SCT250=



000
FTUS46 KSTO 201500 AAB
TAFRDD
TAF AMD
KRDD 201512Z 2015/2112 VRB05KT P6SM -SHRA SCT015 OVC040
      TEMPO 2015/2019 5SM -SHRA BKN015 OVC025
     FM202000 18009KT P6SM -SHRA SCT025 BKN050
      TEMPO 2021/2101 5SM -TSRA OVC025CB
     FM210200 18004KT P6SM VCSH BKN040 OVC100
     FM210800 VRB03KT P6SM SCT250=



000
FTUS46 KSTO 201300 AAA
TAFRDD
TAF AMD
KRDD 201343Z 2014/2112 VRB05KT P6SM VCSH SCT050 BKN100
     FM201500 18009KT P6SM -RA SCT025 OVC050
      TEMPO 2018/2022 5SM TSRA SCT015 BKN025CB
     FM210200 18004KT P6SM VCSH BKN040 OVC100
     FM210800 VRB03KT P6SM SCT250=



000
FTUS46 KSTO 201300 AAA
TAFRBL
TAF AMD
KRBL 201343Z 2014/2112 19010KT P6SM VCSH FEW050 BKN150
     FM201600 18012KT P6SM -RA SCT025 OVC050
      TEMPO 2019/2023 5SM TSRA SCT015 BKN025CB
     FM210300 18004KT P6SM BKN040 OVC100
     FM210900 00000KT P6SM SCT250=



000
FTUS46 KSTO 201100
TAFSAC
TAF
KSAC 201123Z 2012/2112 22008KT P6SM SCT200
     FM201400 19006KT P6SM SCT050 BKN100
     FM202000 22011G21KT P6SM -RA SCT030 OVC050
     FM210200 20010KT P6SM OVC100
     FM210600 17008KT P6SM SCT100 BKN250=



000
FTUS46 KSTO 201100
TAFRBL
TAF
KRBL 201123Z 2012/2112 16010KT P6SM FEW050 BKN150
     FM201600 16012KT P6SM -RA SCT025 OVC050
      TEMPO 2020/2024 5SM RA SCT015 OVC025
     FM210300 18004KT P6SM BKN040 OVC100
     FM210900 00000KT P6SM SCT250=



000
FTUS46 KSTO 201100
TAFRDD
TAF
KRDD 201123Z 2012/2112 19005KT P6SM SCT050 BKN150
     FM201500 18009KT P6SM -RA SCT025 OVC050
      TEMPO 2018/2022 5SM RA SCT015 OVC025
     FM210200 18004KT P6SM VCSH BKN040 OVC100
     FM210800 VRB03KT P6SM SCT250=



000
FTUS46 KSTO 201100
TAFSMF
TAF
KSMF 201123Z 2012/2112 18007KT P6SM SCT200
     FM201500 17010KT P6SM SCT050 BKN100
     FM202100 21012G20KT P6SM -RA SCT030 OVC060
     FM210200 20010KT P6SM OVC100
     FM210600 17008KT P6SM SCT100 BKN250=



000
FTUS46 KSTO 201100
TAFSCK
TAF
KSCK 201123Z 2012/2112 34007KT P6SM FEW200
     FM201800 30008KT P6SM FEW050 BKN100
     FM202200 31012G20KT P6SM SCT040 OVC070
     FM210400 28010KT P6SM SCT100
     FM210600 17008KT P6SM BKN250=



000
FTUS46 KSTO 201100
TAFMHR
TAF
KMHR 201123Z 2012/2112 25005KT P6SM SCT200
     FM201500 17006KT P6SM SCT050 BKN100
     FM202100 24010G20KT P6SM -RA SCT030 OVC060
     FM210200 22010KT P6SM OVC100
     FM210600 17008KT P6SM SCT100 BKN250=



000
FTUS46 KSTO 200500
TAFMHR
TAF
KMHR 200528Z 2006/2106 25005KT P6SM SCT200
     FM201500 17006KT P6SM SCT050 BKN100
     FM202100 24010G20KT P6SM -RA SCT030 OVC060=



000
FTUS46 KSTO 200500
TAFRBL
TAF
KRBL 200528Z 2006/2106 16010KT P6SM FEW050 BKN150
     FM201600 16010KT P6SM -RA SCT025 OVC050
      TEMPO 2020/2024 5SM RA SCT015 OVC025=



000
FTUS46 KSTO 200500
TAFSAC
TAF
KSAC 200528Z 2006/2106 22008KT P6SM SCT200
     FM201400 19006KT P6SM SCT050 BKN100
     FM202100 22011G21KT P6SM -RA SCT030 OVC060=



000
FTUS46 KSTO 200500
TAFSCK
TAF
KSCK 200528Z 2006/2106 30010KT P6SM FEW200
     FM201800 29008KT P6SM FEW050 BKN100
     FM202200 31012KT P6SM SCT040 OVC070=



000
FTUS46 KSTO 200500
TAFSMF
TAF
KSMF 200528Z 2006/2106 17007KT P6SM SCT200
     FM201500 17010KT P6SM SCT050 BKN100
     FM202100 21012G20KT P6SM -RA SCT030 OVC060=



000
FTUS46 KSTO 200500
TAFRDD
TAF
KRDD 200528Z 2006/2106 19007KT P6SM SCT050 BKN150
     FM201500 18009KT P6SM -RA SCT025 OVC050
      TEMPO 2019/2023 5SM RA SCT015 OVC025=



    US Dept of Commerce
    National Oceanic and Atmospheric Administration
    National Weather Service
    1325 East West Highway
    Silver Spring, MD 20910
    Page Author: NWS Internet Services Team
Disclaimer
Information Quality
Credits
Glossary
Privacy Policy
Freedom of Information Act (FOIA)
About Us
Career Opportunities